Time;durP1;ratioP1;P1;durP2;ratioP2;P2;SDS_P1;SDS_P2;PMS_P1;PMS_P2;Temp;Humidity;BMP_temperature;BMP_pressure;BME280_temperature;BME280_humidity;BME280_pressure;Samples;Min_cycle;Max_cycle;Signal;HPM_P1;HPM_P2
2022/04/16 00:02:30;;;;;;;27.90;16.33;;;;;;;;;;4840418;29;20041;-89
2022/04/16 00:05:16;;;;;;;24.73;15.75;;;;;;;;;;4840691;29;20081;-88
2022/04/16 00:08:11;;;;;;;28.83;17.33;;;;;;;;;;4838937;29;20421;-88
2022/04/16 00:10:56;;;;;;;24.30;16.88;;;;;;;;;;4839553;29;20089;-88
2022/04/16 00:13:41;;;;;;;27.85;17.65;;;;;;;;;;4840839;29;20045;-88
2022/04/16 00:16:29;;;;;;;29.63;16.40;;;;;;;;;;4839795;29;20659;-90
2022/04/16 00:19:14;;;;;;;23.55;16.83;;;;;;;;;;4840349;29;20526;-88
2022/04/16 00:22:07;;;;;;;26.42;16.63;;;;;;;;;;4842304;29;20067;-89
2022/04/16 00:24:52;;;;;;;31.23;16.23;;;;;;;;;;4841098;29;20121;-88
2022/04/16 00:27:38;;;;;;;27.85;16.98;;;;;;;;;;4843249;29;20093;-87
2022/04/16 00:30:23;;;;;;;24.85;16.67;;;;;;;;;;4843023;29;20080;-89
2022/04/16 00:33:11;;;;;;;26.38;16.70;;;;;;;;;;4842968;29;20045;-88
2022/04/16 00:36:01;;;;;;;24.65;15.55;;;;;;;;;;4845360;29;20048;-88
2022/04/16 00:38:48;;;;;;;28.92;16.75;;;;;;;;;;4843682;29;20056;-89
2022/04/16 00:41:33;;;;;;;25.70;16.17;;;;;;;;;;4843748;29;20048;-88
2022/04/16 00:44:19;;;;;;;31.80;16.33;;;;;;;;;;4838520;29;20081;-88
2022/04/16 00:47:12;;;;;;;26.20;16.83;;;;;;;;;;4838165;29;20042;-88
2022/04/16 00:49:59;;;;;;;29.42;17.30;;;;;;;;;;4837671;29;20058;-88
2022/04/16 00:52:48;;;;;;;25.80;17.05;;;;;;;;;;4838008;29;20053;-87
2022/04/16 00:55:40;;;;;;;24.60;15.85;;;;;;;;;;4837334;29;20076;-89
2022/04/16 00:58:25;;;;;;;28.13;16.77;;;;;;;;;;4826066;29;20409;-88
2022/04/16 01:01:09;;;;;;;30.02;16.45;;;;;;;;;;4837701;29;20045;-87
2022/04/16 01:03:54;;;;;;;29.45;17.25;;;;;;;;;;4837412;29;20122;-87
2022/04/16 01:06:39;;;;;;;24.90;15.75;;;;;;;;;;4837375;29;20090;-87
2022/04/16 01:09:24;;;;;;;26.67;17.10;;;;;;;;;;4837669;29;20073;-87
2022/04/16 01:12:09;;;;;;;27.20;16.83;;;;;;;;;;4837981;29;20049;-88
2022/04/16 01:14:55;;;;;;;28.42;16.33;;;;;;;;;;4836373;29;20629;-89
2022/04/16 01:17:41;;;;;;;28.60;17.42;;;;;;;;;;4836122;29;20041;-87
2022/04/16 01:20:25;;;;;;;25.38;16.38;;;;;;;;;;4837251;29;20045;-87
2022/04/16 01:23:10;;;;;;;24.63;16.98;;;;;;;;;;4837259;29;20512;-87
2022/04/16 01:26:02;;;;;;;33.10;17.50;;;;;;;;;;4836777;29;20090;-88
2022/04/16 01:28:47;;;;;;;29.48;17.35;;;;;;;;;;4836667;29;20095;-87
2022/04/16 01:31:34;;;;;;;31.80;18.33;;;;;;;;;;4836169;29;20108;-88
2022/04/16 01:34:20;;;;;;;34.42;17.83;;;;;;;;;;4837458;29;20405;-88
2022/04/16 01:37:05;;;;;;;30.33;18.05;;;;;;;;;;4835613;29;20048;-87
2022/04/16 01:39:49;;;;;;;33.78;17.98;;;;;;;;;;4836602;29;20162;-87
2022/04/16 01:42:34;;;;;;;27.98;16.38;;;;;;;;;;4842564;29;20145;-87
2022/04/16 01:45:19;;;;;;;33.45;17.80;;;;;;;;;;4842282;29;20045;-87
2022/04/16 01:48:07;;;;;;;32.15;18.45;;;;;;;;;;4841755;29;20053;-87
2022/04/16 01:50:51;;;;;;;28.05;17.88;;;;;;;;;;4842952;29;20049;-87
2022/04/16 01:53:36;;;;;;;33.72;18.55;;;;;;;;;;4842401;29;20496;-88
2022/04/16 01:56:21;;;;;;;34.38;19.92;;;;;;;;;;4842171;29;20503;-87
2022/04/16 01:59:08;;;;;;;32.72;19.00;;;;;;;;;;4842360;29;20126;-87
2022/04/16 02:01:55;;;;;;;34.97;20.45;;;;;;;;;;4841835;29;20125;-87
2022/04/16 02:04:39;;;;;;;30.73;18.55;;;;;;;;;;4841711;29;20053;-89
2022/04/16 02:07:24;;;;;;;36.40;19.42;;;;;;;;;;4842271;29;20045;-87
2022/04/16 02:10:12;;;;;;;33.08;19.17;;;;;;;;;;4841877;29;20057;-87
2022/04/16 02:13:00;;;;;;;36.70;19.90;;;;;;;;;;4841562;29;20462;-87
2022/04/16 02:15:45;;;;;;;32.75;19.45;;;;;;;;;;4842624;29;20066;-87
2022/04/16 02:18:29;;;;;;;34.25;19.90;;;;;;;;;;4841456;29;20057;-87
2022/04/16 02:21:22;;;;;;;32.03;20.20;;;;;;;;;;4842797;29;20045;-87
2022/04/16 02:24:07;;;;;;;32.97;19.77;;;;;;;;;;4841687;29;20461;-88
2022/04/16 02:26:55;;;;;;;33.25;18.88;;;;;;;;;;4842406;29;20040;-87
2022/04/16 02:29:40;;;;;;;31.02;18.60;;;;;;;;;;4841725;29;20076;-87
2022/04/16 02:32:28;;;;;;;35.22;20.85;;;;;;;;;;4842782;29;20102;-87
2022/04/16 02:35:14;;;;;;;35.47;19.70;;;;;;;;;;4841794;29;20458;-87
2022/04/16 02:37:58;;;;;;;38.22;20.27;;;;;;;;;;4840970;29;20048;-87
2022/04/16 02:40:43;;;;;;;36.97;20.20;;;;;;;;;;4840569;29;20040;-88
2022/04/16 02:43:27;;;;;;;33.92;20.13;;;;;;;;;;4841455;29;20108;-87
2022/04/16 02:49:16;;;;;;;38.23;21.30;;;;;;;;;;4840999;29;20513;-87
2022/04/16 02:52:01;;;;;;;38.17;21.10;;;;;;;;;;4840385;29;20102;-87
2022/04/16 02:54:45;;;;;;;40.28;21.13;;;;;;;;;;4842076;29;20048;-89
2022/04/16 02:57:33;;;;;;;38.80;21.67;;;;;;;;;;4841565;29;20404;-88
2022/04/16 03:00:24;;;;;;;40.40;22.88;;;;;;;;;;4840814;29;20516;-87
2022/04/16 03:03:09;;;;;;;41.35;21.17;;;;;;;;;;4840835;29;20053;-87
2022/04/16 03:05:57;;;;;;;40.45;21.52;;;;;;;;;;4839531;29;20121;-88
2022/04/16 03:08:42;;;;;;;36.85;21.25;;;;;;;;;;4827568;29;20048;-88
2022/04/16 03:11:27;;;;;;;41.53;23.85;;;;;;;;;;4841137;29;20109;-87
2022/04/16 03:17:36;;;;;;;35.27;21.37;;;;;;;;;;4841855;29;20107;-89
2022/04/16 03:20:23;;;;;;;37.22;22.10;;;;;;;;;;4840971;29;20274;-87
2022/04/16 03:23:09;;;;;;;37.35;23.08;;;;;;;;;;4827575;29;20535;-87
2022/04/16 03:25:53;;;;;;;35.60;20.98;;;;;;;;;;4840162;29;20049;-87
2022/04/16 03:28:38;;;;;;;34.90;21.15;;;;;;;;;;4840664;29;20078;-87
2022/04/16 03:31:24;;;;;;;33.85;22.50;;;;;;;;;;4840808;29;20059;-88
2022/04/16 03:34:08;;;;;;;34.45;22.75;;;;;;;;;;4840024;29;20060;-87
2022/04/16 03:36:53;;;;;;;39.80;22.52;;;;;;;;;;4840466;29;20052;-88
2022/04/16 03:39:38;;;;;;;36.38;21.52;;;;;;;;;;4842935;29;20103;-88
2022/04/16 03:42:22;;;;;;;38.70;23.80;;;;;;;;;;4843824;29;20060;-87
2022/04/16 03:45:10;;;;;;;37.95;24.13;;;;;;;;;;4842381;29;20523;-87
2022/04/16 03:48:10;;;;;;;39.42;23.52;;;;;;;;;;4841936;29;20504;-87
2022/04/16 03:50:55;;;;;;;38.33;22.95;;;;;;;;;;4842311;29;20067;-88
2022/04/16 03:53:40;;;;;;;37.42;22.77;;;;;;;;;;4827660;29;20098;-87
2022/04/16 04:02:33;;;;;;;39.53;23.45;;;;;;;;;;4841460;29;20048;-88
2022/04/16 04:05:18;;;;;;;41.05;25.83;;;;;;;;;;4839411;29;20527;-88
2022/04/16 04:08:02;;;;;;;41.53;26.13;;;;;;;;;;4838439;29;20049;-88
2022/04/16 04:10:47;;;;;;;41.72;27.02;;;;;;;;;;4839291;29;20392;-88
2022/04/16 04:13:32;;;;;;;40.95;26.35;;;;;;;;;;4840037;29;20136;-87
2022/04/16 04:16:19;;;;;;;41.40;26.67;;;;;;;;;;4840403;29;20037;-87
2022/04/16 04:19:04;;;;;;;38.00;25.38;;;;;;;;;;4838045;29;20054;-87
2022/04/16 04:21:48;;;;;;;39.90;26.88;;;;;;;;;;4838636;29;20405;-87
2022/04/16 04:24:33;;;;;;;38.63;25.95;;;;;;;;;;4838481;29;20085;-88
2022/04/16 04:27:18;;;;;;;42.55;26.00;;;;;;;;;;4839728;29;20442;-88
2022/04/16 04:30:03;;;;;;;42.53;25.85;;;;;;;;;;4840589;29;20094;-88
2022/04/16 04:32:47;;;;;;;42.63;27.40;;;;;;;;;;4840134;29;20137;-88
2022/04/16 04:35:32;;;;;;;44.58;29.52;;;;;;;;;;4840302;29;20105;-87
2022/04/16 04:38:16;;;;;;;38.88;25.77;;;;;;;;;;4839462;29;20651;-88
2022/04/16 04:41:03;;;;;;;40.25;27.27;;;;;;;;;;4838761;29;20125;-88
2022/04/16 04:43:51;;;;;;;40.67;26.95;;;;;;;;;;4839052;29;20069;-87
2022/04/16 04:46:35;;;;;;;38.72;25.75;;;;;;;;;;4840190;29;20064;-87
2022/04/16 04:49:20;;;;;;;36.35;23.60;;;;;;;;;;4827983;29;20049;-89
2022/04/16 04:52:08;;;;;;;31.95;21.88;;;;;;;;;;4839686;29;20101;-88
2022/04/16 04:54:53;;;;;;;27.80;20.05;;;;;;;;;;4840315;29;20130;-88
2022/04/16 04:57:38;;;;;;;31.13;20.10;;;;;;;;;;4826437;29;20564;-88
2022/04/16 05:00:23;;;;;;;29.60;17.65;;;;;;;;;;4839568;29;20117;-87
2022/04/16 05:03:16;;;;;;;25.38;16.45;;;;;;;;;;4839667;29;20049;-88
2022/04/16 05:06:01;;;;;;;27.88;17.17;;;;;;;;;;4840599;29;20090;-89
2022/04/16 05:08:46;;;;;;;26.98;15.43;;;;;;;;;;4840269;29;20049;-88
2022/04/16 05:11:31;;;;;;;22.40;15.25;;;;;;;;;;4840042;29;20121;-88
2022/04/16 05:14:16;;;;;;;25.65;15.65;;;;;;;;;;4842461;29;20048;-86
2022/04/16 05:17:01;;;;;;;22.60;15.35;;;;;;;;;;4830090;29;20120;-88
2022/04/16 05:19:45;;;;;;;25.92;15.52;;;;;;;;;;4843197;29;20466;-88
2022/04/16 05:22:30;;;;;;;22.13;15.07;;;;;;;;;;4842712;29;20057;-88
2022/04/16 05:25:15;;;;;;;21.60;14.27;;;;;;;;;;4843367;29;20170;-88
2022/04/16 05:27:59;;;;;;;23.83;13.90;;;;;;;;;;4842838;29;20045;-88
2022/04/16 05:30:54;;;;;;;25.52;14.35;;;;;;;;;;4842578;29;20102;-87
2022/04/16 05:36:45;;;;;;;21.33;13.30;;;;;;;;;;4843975;29;20063;-88
2022/04/16 05:39:30;;;;;;;21.85;13.88;;;;;;;;;;4842374;29;20515;-87
2022/04/16 05:42:15;;;;;;;23.30;13.73;;;;;;;;;;4841937;29;20186;-88
2022/04/16 05:45:01;;;;;;;27.45;14.32;;;;;;;;;;4842168;29;20041;-88
2022/04/16 05:47:46;;;;;;;20.08;12.30;;;;;;;;;;4842805;29;20084;-89
2022/04/16 05:50:30;;;;;;;18.45;12.45;;;;;;;;;;4841611;29;20106;-88
2022/04/16 05:53:15;;;;;;;21.70;11.55;;;;;;;;;;4841982;29;20037;-89
2022/04/16 05:56:01;;;;;;;20.58;11.63;;;;;;;;;;4841941;29;20045;-88
2022/04/16 05:58:45;;;;;;;21.60;12.63;;;;;;;;;;4841570;29;20088;-88
2022/04/16 06:01:30;;;;;;;17.83;11.30;;;;;;;;;;4841479;29;20111;-88
2022/04/16 06:04:15;;;;;;;18.27;11.75;;;;;;;;;;4841264;29;20040;-87
2022/04/16 06:07:05;;;;;;;20.73;12.23;;;;;;;;;;4842196;29;20045;-88
2022/04/16 06:09:50;;;;;;;18.55;11.48;;;;;;;;;;4829533;29;20076;-89
2022/04/16 06:12:35;;;;;;;16.45;10.32;;;;;;;;;;4841854;29;20061;-87
2022/04/16 06:15:19;;;;;;;16.42;11.50;;;;;;;;;;4828207;29;20599;-88
2022/04/16 06:18:04;;;;;;;16.50;11.02;;;;;;;;;;4841292;29;20103;-88
2022/04/16 06:20:49;;;;;;;16.40;9.85;;;;;;;;;;4841608;29;20076;-89
2022/04/16 06:23:34;;;;;;;16.35;10.70;;;;;;;;;;4844569;29;20060;-86
2022/04/16 06:26:19;;;;;;;16.42;10.05;;;;;;;;;;4846397;29;20072;-88
2022/04/16 06:32:16;;;;;;;17.65;10.93;;;;;;;;;;4860452;29;20056;-87
2022/04/16 06:35:01;;;;;;;21.08;11.65;;;;;;;;;;4847386;29;20166;-88
2022/04/16 06:37:49;;;;;;;17.08;10.75;;;;;;;;;;4847015;29;20085;-87
2022/04/16 06:40:34;;;;;;;17.48;11.23;;;;;;;;;;4846503;29;20065;-88
2022/04/16 06:43:18;;;;;;;17.80;10.73;;;;;;;;;;4833076;29;20195;-87
2022/04/16 06:46:03;;;;;;;20.65;11.73;;;;;;;;;;4848783;29;20441;-87
2022/04/16 06:48:47;;;;;;;15.43;10.18;;;;;;;;;;4848636;29;20415;-87
2022/04/16 06:51:32;;;;;;;16.95;11.60;;;;;;;;;;4848351;29;20040;-88
2022/04/16 06:54:17;;;;;;;18.10;10.50;;;;;;;;;;4845573;29;20044;-88
2022/04/16 06:57:03;;;;;;;14.40;9.43;;;;;;;;;;4846294;29;20040;-89
2022/04/16 06:59:48;;;;;;;16.35;10.13;;;;;;;;;;4858684;29;20091;-88
2022/04/16 07:02:34;;;;;;;17.77;10.40;;;;;;;;;;4850231;29;20093;-88
2022/04/16 07:05:21;;;;;;;17.15;9.35;;;;;;;;;;4863336;29;20457;-90
2022/04/16 07:08:06;;;;;;;12.90;8.93;;;;;;;;;;4863193;29;20048;-88
2022/04/16 07:10:50;;;;;;;15.32;8.60;;;;;;;;;;4864675;29;20128;-88
2022/04/16 07:13:41;;;;;;;16.15;8.95;;;;;;;;;;4864542;29;20043;-88
2022/04/16 07:16:55;;;;;;;15.70;9.30;;;;;;;;;;4841426;29;20045;-92
2022/04/16 07:20:03;;;;;;;16.63;9.02;;;;;;;;;;4845210;29;20048;-92
2022/04/16 07:36:45;;;;;;;11.25;7.18;;;12.10;99.90;;;;;;4832229;29;20087;-94
2022/04/16 07:39:36;;;;;;;11.65;6.88;;;;;;;;;;4846921;29;20527;-91
2022/04/16 07:43:14;;;;;;;;;;;;;;;;;;;;;
2022/04/16 07:46:18;;;;;;;;;;;;;;;;;;;;;
2022/04/16 07:49:09;;;;;;;10.30;4.97;;;;;;;;;;4858130;29;20504;-93
2022/04/16 07:52:14;;;;;;;8.57;5.28;;;;;;;;;;4860753;29;20052;-92
2022/04/16 07:54:59;;;;;;;7.82;5.45;;;;;;;;;;4848581;29;20118;-92
2022/04/16 07:57:55;;;;;;;8.77;5.65;;;;;;;;;;4845760;29;20233;-91
2022/04/16 08:01:04;;;;;;;7.13;4.90;;;;;;;;;;4846079;29;20045;-91
2022/04/16 08:07:32;;;;;;;6.60;4.03;;;;;;;;;;4785176;30;20058;-91
2022/04/16 08:10:20;;;;;;;9.73;4.85;;;;;;;;;;4772642;30;20693;-90
2022/04/16 08:13:21;;;;;;;;;;;;;;;;;;;;;
2022/04/16 08:16:16;;;;;;;7.70;4.20;;;;;;;;;;4800074;29;20038;-92
2022/04/16 08:19:10;;;;;;;7.65;4.20;;;;;;;;;;4819931;29;20058;-92
2022/04/16 08:22:08;;;;;;;6.88;3.55;;;;;;;;;;4843715;29;20488;-90
2022/04/16 08:28:29;;;;;;;7.15;4.55;;;;;;;;;;4785640;30;20055;-88
2022/04/16 08:31:17;;;;;;;8.20;4.43;;;;;;;;;;4844263;29;20040;-92
2022/04/16 08:37:42;;;;;;;9.60;5.13;;;;;;;;;;4833319;29;20040;-91
2022/04/16 08:44:05;;;;;;;8.07;5.07;;;;;;;;;;4853325;29;20506;-95
2022/04/16 08:46:58;;;;;;;;;;;12.80;99.90;;;;;;4833461;29;20195;-90
2022/04/16 08:49:46;;;;;;;10.15;5.47;;;;;;;;;;4836588;29;20015;-90
2022/04/16 08:52:33;;;;;;;10.07;4.65;;;;;;;;;;4849315;29;20049;-91
2022/04/16 08:55:18;;;;;;;7.28;4.32;;;;;;;;;;4850036;29;20548;-90
2022/04/16 08:58:35;;;;;;;6.00;3.50;;;;;;;;;;4850088;29;20086;-92
2022/04/16 09:02:04;;;;;;;7.45;3.80;;;;;;;;;;4820419;29;20048;-91
2022/04/16 09:05:03;;;;;;;5.57;3.05;;;;;;;;;;4777097;30;20042;-88
2022/04/16 09:07:52;;;;;;;7.72;3.28;;;;;;;;;;4850841;29;20530;-90
2022/04/16 09:11:10;;;;;;;5.63;3.15;;;;;;;;;;4863309;29;20056;-92
2022/04/16 09:14:02;;;;;;;5.07;2.88;;;;;;;;;;4847873;29;20132;-93
2022/04/16 09:16:56;;;;;;;10.00;2.95;;;;;;;;;;4861763;29;20144;-93
2022/04/16 09:23:51;;;;;;;;;;;;;;;;;;;;;
2022/04/16 09:26:58;;;;;;;4.97;3.08;;;;;;;;;;4875231;29;20536;-91
2022/04/16 09:29:44;;;;;;;5.70;2.88;;;;;;;;;;4862612;29;20122;-88
2022/04/16 09:43:10;;;;;;;5.00;2.45;;;;;;;;;;4713210;30;20626;-89
2022/04/16 09:46:16;;;;;;;5.22;2.53;;;;;;;;;;4719087;30;20065;-94
2022/04/16 09:49:40;;;;;;;;;;;;;;;;;;;;;
2022/04/16 09:52:32;;;;;;;4.45;2.35;;;;;;;;;;4848992;29;20048;-90
2022/04/16 09:55:53;;;;;;;;;;;;;;;;;;;;;
2022/04/16 10:05:54;;;;;;;;;;;;;;;;;;;;;
2022/04/16 10:08:50;;;;;;;9.20;2.03;;;;;;;;;;4850778;29;20079;-91
2022/04/16 10:18:28;;;;;;;5.93;2.08;;;;;;;;;;4843830;29;20053;-90
2022/04/16 10:21:20;;;;;;;6.25;1.70;;;;;;;;;;4829917;29;20541;-93
2022/04/16 10:24:07;;;;;;;2.88;1.30;;;;;;;;;;4842869;29;20068;-90
2022/04/16 10:27:03;;;;;;;1.73;1.00;;;;;;;;;;4829287;29;20044;-90
2022/04/16 10:29:48;;;;;;;1.98;1.00;;;;;;;;;;4856430;29;20048;-94
2022/04/16 10:32:40;;;;;;;2.47;1.13;;;;;;;;;;4861593;29;20044;-92
2022/04/16 10:35:51;;;;;;;3.05;1.05;;;;;;;;;;4861773;29;20499;-91
2022/04/16 10:38:44;;;;;;;2.40;1.02;;;;;;;;;;4849068;29;20140;-90
2022/04/16 10:41:32;;;;;;;2.38;0.82;;;;;;;;;;4848836;29;20437;-88
2022/04/16 10:44:17;;;;;;;2.42;1.35;;;;;;;;;;4835791;29;20052;-88
2022/04/16 10:47:15;;;;;;;;;;;;;;;;;;;;;
2022/04/16 10:50:00;;;;;;;2.63;0.82;;;;;;;;;;4862468;29;20156;-91
2022/04/16 10:56:31;;;;;;;3.10;1.20;;;;;;;;;;4790763;29;20082;-90
2022/04/16 11:03:30;;;;;;;;;;;15.80;50.60;;;;;;4861460;29;20075;-87
2022/04/16 11:06:30;;;;;;;2.67;1.10;;;;;;;;;;4860257;29;19919;-90
2022/04/16 11:09:50;;;;;;;1.80;0.93;;;;;;;;;;4860464;29;20484;-89
2022/04/16 11:12:47;;;;;;;;;;;;;;;;;;;;;
2022/04/16 11:15:40;;;;;;;2.38;1.00;;;;;;;;;;4860841;29;20432;-91
2022/04/16 11:22:19;;;;;;;2.20;0.90;;;;;;;;;;4814966;29;20113;-90
2022/04/16 11:25:07;;;;;;;1.33;0.88;;;;;;;;;;4836184;29;20053;-94
2022/04/16 11:34:17;;;;;;;1.85;1.00;;;;;;;;;;4849065;29;20105;-92
2022/04/16 11:37:01;;;;;;;1.88;0.77;;;;;;;;;;4853447;29;20105;-93
2022/04/16 11:39:48;;;;;;;2.58;0.82;;;;;;;;;;4847995;29;20052;-93
2022/04/16 11:42:38;;;;;;;2.97;1.10;;;;;;;;;;4861024;29;20104;-91
2022/04/16 11:46:01;;;;;;;1.70;0.88;;;16.50;50.10;;;;;;4848179;29;20080;-90
2022/04/16 11:48:47;;;;;;;2.55;0.90;;;;;;;;;;4856037;29;20044;-89
2022/04/16 11:51:37;;;;;;;1.60;0.90;;;;;;;;;;4848300;29;20128;-91
2022/04/16 11:54:38;;;;;;;2.30;1.00;;;;;;;;;;4860518;29;20153;-89
2022/04/16 11:57:42;;;;;;;1.90;1.00;;;;;;;;;;4860295;29;20081;-92
2022/04/16 12:00:40;;;;;;;2.65;0.70;;;;;;;;;;4860941;29;20088;-93
2022/04/16 12:03:35;;;;;;;2.92;0.80;;;;;;;;;;4848666;29;20081;-89
2022/04/16 12:06:28;;;;;;;2.58;1.33;;;;;;;;;;4849283;29;20044;-93
2022/04/16 12:09:23;;;;;;;2.08;0.90;;;;;;;;;;4852770;29;20139;-93
2022/04/16 12:12:12;;;;;;;1.90;0.90;;;;;;;;;;4851801;29;20044;-94
2022/04/16 12:15:04;;;;;;;2.17;1.20;;;;;;;;;;4847682;29;20056;-90
2022/04/16 12:17:49;;;;;;;4.60;1.00;;;;;;;;;;4848101;29;20531;-90
2022/04/16 12:20:45;;;;;;;2.63;1.25;;;;;;;;;;4860371;29;20044;-89
2022/04/16 12:23:38;;;;;;;3.78;1.10;;;;;;;;;;4850114;29;20045;-92
2022/04/16 12:26:26;;;;;;;3.30;1.00;;;;;;;;;;4864487;29;20066;-88
2022/04/16 12:29:48;;;;;;;1.85;1.00;;;16.50;47.90;;;;;;4849630;29;20100;-92
2022/04/16 12:32:36;;;;;;;2.72;1.00;;;;;;;;;;4849972;29;20048;-91
2022/04/16 12:35:24;;;;;;;2.30;0.95;;;;;;;;;;4862979;29;20718;-92
2022/04/16 12:38:14;;;;;;;3.97;1.00;;;;;;;;;;4835706;29;20503;-92
2022/04/16 12:41:27;;;;;;;1.67;0.80;;;;;;;;;;4849508;29;20072;-88
2022/04/16 12:44:35;;;;;;;3.33;0.90;;;;;;;;;;4847175;29;20075;-92
2022/04/16 12:47:35;;;;;;;3.08;1.05;;;;;;;;;;4849442;29;20105;-93
2022/04/16 12:50:35;;;;;;;2.65;0.90;;;;;;;;;;4837533;29;20187;-90
2022/04/16 12:53:30;;;;;;;;;;;;;;;;;;;;;
2022/04/16 12:56:47;;;;;;;1.58;1.00;;;;;;;;;;4854741;29;20488;-90
2022/04/16 12:59:51;;;;;;;2.30;1.00;;;;;;;;;;4845286;29;20134;-93
2022/04/16 13:02:43;;;;;;;2.10;1.10;;;;;;;;;;4853555;29;20093;-91
2022/04/16 13:05:36;;;;;;;2.47;1.05;;;;;;;;;;4848608;29;20085;-91
2022/04/16 13:08:34;;;;;;;5.63;1.20;;;;;;;;;;4850712;29;20041;-94
2022/04/16 13:11:21;;;;;;;2.88;1.00;;;;;;;;;;4845802;29;20093;-93
2022/04/16 13:14:05;;;;;;;2.55;1.10;;;;;;;;;;4848785;29;20063;-90
2022/04/16 13:16:54;;;;;;;2.38;1.15;;;;;;;;;;4835718;29;20089;-90
2022/04/16 13:19:44;;;;;;;3.10;0.88;;;;;;;;;;4853690;29;20102;-91
2022/04/16 13:22:30;;;;;;;3.92;1.10;;;;;;;;;;4844276;29;20112;-91
2022/04/16 13:25:17;;;;;;;2.22;1.02;;;;;;;;;;4851026;29;20112;-93
2022/04/16 13:28:02;;;;;;;2.90;1.13;;;;;;;;;;4852621;29;20080;-89
2022/04/16 13:30:48;;;;;;;5.45;1.15;;;;;;;;;;4849595;29;20181;-92
2022/04/16 13:33:38;;;;;;;1.58;0.93;;;;;;;;;;4849711;29;20503;-90
2022/04/16 13:42:52;;;;;;;2.65;0.90;;;;;;;;;;4864022;29;20053;-90
2022/04/16 13:45:39;;;;;;;4.25;1.35;;;;;;;;;;4848290;29;20048;-90
2022/04/16 13:48:25;;;;;;;2.42;1.00;;;;;;;;;;4861429;29;20059;-87
2022/04/16 13:51:12;;;;;;;3.03;1.00;;;;;;;;;;4835129;29;20105;-90
2022/04/16 13:53:57;;;;;;;1.67;0.98;;;;;;;;;;4848323;29;20129;-89
2022/04/16 14:00:10;;;;;;;4.32;1.00;;;;;;;;;;4787281;30;20051;-90
2022/04/16 14:02:58;;;;;;;2.78;1.08;;;;;;;;;;4849867;29;20048;-91
2022/04/16 14:06:00;;;;;;;2.75;1.20;;;;;;;;;;4848358;29;20596;-90
2022/04/16 14:08:51;;;;;;;2.05;1.00;;;;;;;;;;4848320;29;20080;-93
2022/04/16 14:11:45;;;;;;;3.25;1.30;;;;;;;;;;4847532;29;20536;-91
2022/04/16 14:14:41;;;;;;;3.05;0.98;;;;;;;;;;4847302;29;20498;-90
2022/04/16 14:17:31;;;;;;;3.78;0.95;;;;;;;;;;4847367;29;20037;-89
2022/04/16 14:20:18;;;;;;;2.45;1.00;;;;;;;;;;4834160;29;20124;-90
2022/04/16 14:23:03;;;;;;;3.05;1.30;;;;;;;;;;4862043;29;20045;-92
2022/04/16 14:25:50;;;;;;;3.17;1.13;;;;;;;;;;4847996;29;20090;-92
2022/04/16 14:28:39;;;;;;;2.28;1.17;;;;;;;;;;4849612;29;20048;-90
2022/04/16 14:31:27;;;;;;;3.72;1.30;;;;;;;;;;4862846;29;20056;-91
2022/04/16 14:34:15;;;;;;;2.55;1.02;;;;;;;;;;4848273;29;20072;-91
2022/04/16 14:37:10;;;;;;;;;;;;;;;;;;;;;
2022/04/16 14:40:01;;;;;;;2.63;1.20;;;;;;;;;;4861852;29;20044;-91
2022/04/16 14:42:48;;;;;;;2.58;1.10;;;;;;;;;;4847980;29;20065;-88
2022/04/16 14:46:04;;;;;;;2.28;1.10;;;;;;;;;;4848089;29;20040;-93
2022/04/16 14:48:53;;;;;;;4.22;1.10;;;;;;;;;;4836917;29;20120;-91
2022/04/16 14:51:47;;;;;;;4.05;1.17;;;;;;;;;;4847633;29;20133;-92
2022/04/16 14:54:35;;;;;;;2.60;0.77;;;;;;;;;;4848136;29;20040;-92
2022/04/16 14:57:22;;;;;;;4.47;1.30;;;;;;;;;;4861318;29;20041;-92
2022/04/16 15:00:28;;;;;;;2.22;1.05;;;;;;;;;;4848008;29;20508;-93
2022/04/16 15:03:13;;;;;;;3.95;0.90;;;;;;;;;;4837360;29;20460;-91
2022/04/16 15:06:01;;;;;;;4.40;1.30;;;;;;;;;;4849252;29;20039;-92
2022/04/16 15:08:51;;;;;;;2.20;1.15;;;;;;;;;;4861039;29;20105;-90
2022/04/16 15:11:38;;;;;;;4.15;1.30;;;;;;;;;;4850632;29;20076;-90
2022/04/16 15:14:23;;;;;;;2.72;1.20;;;;;;;;;;4854763;29;20136;-90
2022/04/16 15:17:20;;;;;;;4.72;1.10;;;;;;;;;;4849055;29;20051;-90
2022/04/16 15:20:36;;;;;;;3.78;1.30;;;;;;;;;;4873606;29;20040;-91
2022/04/16 15:23:21;;;;;;;2.75;1.30;;;;;;;;;;4872878;29;20572;-89
2022/04/16 15:26:13;;;;;;;1.98;1.10;;;;;;;;;;4853692;29;20056;-90
2022/04/16 15:29:04;;;;;;;3.97;1.30;;;;;;;;;;4848573;29;20116;-91
2022/04/16 15:31:58;;;;;;;2.40;1.33;;;;;;;;;;4838072;29;20465;-92
2022/04/16 15:34:45;;;;;;;1.90;0.98;;;;;;;;;;4844355;29;20556;-90
2022/04/16 15:37:48;;;;;;;2.60;1.48;;;;;;;;;;4847247;29;20040;-92
2022/04/16 15:40:38;;;;;;;2.45;1.48;;;;;;;;;;4838948;29;20402;-90
2022/04/16 15:43:31;;;;;;;3.05;1.85;;;;;;;;;;4842437;29;20041;-90
2022/04/16 15:46:24;;;;;;;5.55;1.40;;;;;;;;;;4829446;29;20090;-93
2022/04/16 15:49:39;;;;;;;;;;;;;;;;;;;;;
2022/04/16 15:52:28;;;;;;;4.65;1.40;;;;;;;;;;4841706;29;20500;-92
2022/04/16 15:55:14;;;;;;;3.13;1.55;;;;;;;;;;4841071;29;20045;-93
2022/04/16 15:57:58;;;;;;;3.63;1.42;;;;;;;;;;4844310;29;20067;-91
2022/04/16 16:00:45;;;;;;;3.10;1.52;;;;;;;;;;4845735;29;20118;-89
2022/04/16 16:03:46;;;;;;;;;;;;;;;;;;;;;
2022/04/16 16:06:32;;;;;;;2.38;1.27;;;;;;;;;;4844938;29;20040;-89
2022/04/16 16:09:17;;;;;;;2.22;1.17;;;;;;;;;;4841901;29;20366;-92
2022/04/16 16:12:04;;;;;;;3.53;1.30;;;;;;;;;;4841615;29;20397;-90
2022/04/16 16:14:51;;;;;;;8.60;1.45;;;;;;;;;;4841044;29;20093;-92
2022/04/16 16:17:46;;;;;;;2.47;1.30;;;;;;;;;;4843844;29;20045;-91
2022/04/16 16:20:42;;;;;;;2.30;1.27;;;;;;;;;;4841070;29;20049;-89
2022/04/16 16:23:33;;;;;;;1.98;1.00;;;;;;;;;;4842690;29;20076;-89
2022/04/16 16:27:27;;;;;;;3.83;1.40;;;;;;;;;;4830377;29;20049;-90
2022/04/16 16:30:34;;;;;;;2.05;1.27;;;;;;;;;;4846602;29;20138;-90
2022/04/16 16:33:27;;;;;;;5.20;1.30;;;;;;;;;;4844930;29;20553;-92
2022/04/16 16:36:12;;;;;;;2.22;1.20;;;;;;;;;;4848289;29;20040;-89
2022/04/16 16:38:58;;;;;;;2.55;1.30;;;;;;;;;;4843204;29;20121;-90
2022/04/16 16:41:50;;;;;;;3.70;1.30;;;;;;;;;;4842735;29;20045;-91
2022/04/16 16:44:36;;;;;;;2.42;1.25;;;;;;;;;;4844015;29;20048;-90
2022/04/16 16:47:21;;;;;;;5.10;1.40;;;;;;;;;;4844572;29;20496;-89
2022/04/16 16:50:05;;;;;;;2.08;1.25;;;;;;;;;;4845220;29;20049;-91
2022/04/16 16:52:50;;;;;;;2.67;1.30;;;;;;;;;;4844346;29;20073;-91
2022/04/16 16:55:58;;;;;;;5.30;2.95;;;;;;;;;;4844857;29;20492;-89
2022/04/16 16:58:48;;;;;;;3.22;1.50;;;;;;;;;;4841291;29;20098;-90
2022/04/16 17:01:36;;;;;;;6.50;1.60;;;;;;;;;;4839892;29;20409;-88
2022/04/16 17:07:39;;;;;;;3.03;1.50;;;;;;;;;;4841268;29;20421;-91
2022/04/16 17:10:25;;;;;;;4.50;2.10;;;;;;;;;;4843512;29;20421;-91
2022/04/16 17:13:10;;;;;;;3.75;1.80;;;;;;;;;;4843440;29;20117;-90
2022/04/16 17:19:02;;;;;;;7.68;2.33;;;;;;;;;;4844358;29;20060;-91
2022/04/16 17:21:50;;;;;;;4.07;2.13;;;;;;;;;;4844041;29;20460;-90
2022/04/16 17:24:34;;;;;;;2.97;1.52;;;;;;;;;;4843246;29;20458;-91
2022/04/16 17:27:40;;;;;;;3.65;1.60;;;;;;;;;;4843376;29;20041;-91
2022/04/16 17:30:29;;;;;;;3.88;1.60;;;;;;;;;;4836250;29;20061;-93
2022/04/16 17:33:13;;;;;;;3.65;1.70;;;;;;;;;;4846306;29;20069;-91
2022/04/16 17:36:00;;;;;;;4.63;1.75;;;;;;;;;;4842734;29;20077;-91
2022/04/16 17:38:51;;;;;;;3.10;1.55;;;;;;;;;;4855211;29;20049;-90
2022/04/16 17:41:38;;;;;;;2.40;1.33;;;;;;;;;;4849542;29;20503;-89
2022/04/16 17:44:24;;;;;;;3.88;1.40;;;;;;;;;;4852802;29;20114;-92
2022/04/16 17:47:10;;;;;;;4.68;1.60;;;;;;;;;;4848250;29;20114;-90
2022/04/16 17:49:58;;;;;;;3.10;2.15;;;;;;;;;;4862767;29;20070;-91
2022/04/16 17:52:43;;;;;;;2.45;1.45;;;;;;;;;;4847990;29;20177;-93
2022/04/16 17:55:27;;;;;;;3.28;1.60;;;;;;;;;;4863849;29;20539;-91
2022/04/16 17:58:12;;;;;;;4.82;1.70;;;;;;;;;;4848391;29;20045;-93
2022/04/16 18:00:57;;;;;;;3.33;1.52;;;;;;;;;;4862034;29;20083;-91
2022/04/16 18:03:44;;;;;;;3.30;1.85;;;;;;;;;;4861595;29;20094;-92
2022/04/16 18:06:30;;;;;;;2.63;1.50;;;;;;;;;;4850886;29;20040;-92
2022/04/16 18:09:15;;;;;;;2.97;1.70;;;;;;;;;;4848070;29;20048;-93
2022/04/16 18:11:59;;;;;;;4.13;1.98;;;;;;;;;;4861817;29;20044;-91
2022/04/16 18:14:44;;;;;;;4.22;1.60;;;;;;;;;;4850478;29;20041;-92
2022/04/16 18:17:31;;;;;;;2.90;2.05;;;;;;;;;;4848191;29;20089;-92
2022/04/16 18:20:17;;;;;;;6.63;1.90;;;;;;;;;;4847423;29;20048;-91
2022/04/16 18:23:02;;;;;;;3.58;1.60;;;;;;;;;;4861360;29;20102;-90
2022/04/16 18:25:52;;;;;;;3.58;1.83;;;;;;;;;;4861367;29;20036;-91
2022/04/16 18:28:52;;;;;;;3.50;2.33;;;;;;;;;;4835302;29;20059;-90
2022/04/16 18:31:37;;;;;;;3.75;1.98;;;;;;;;;;4838076;29;20053;-91
2022/04/16 18:34:22;;;;;;;5.68;2.38;;;;;;;;;;4835333;29;20196;-91
2022/04/16 18:37:08;;;;;;;5.90;2.78;;;;;;;;;;4847448;29;20144;-91
2022/04/16 18:39:53;;;;;;;6.35;3.13;;;;;;;;;;4852641;29;20060;-93
2022/04/16 18:42:38;;;;;;;6.07;3.75;;;;;;;;;;4853597;29;20124;-92
2022/04/16 18:45:23;;;;;;;6.13;3.38;;;;;;;;;;4855880;29;20113;-91
2022/04/16 18:48:08;;;;;;;4.63;2.97;;;;;;;;;;4844092;29;20106;-93
2022/04/16 18:50:53;;;;;;;4.00;2.42;;;;;;;;;;4846777;29;20057;-91